sensor_id;sensor_type;location;lat;lon;timestamp;temperature;humidity
1377;DHT22;682;52.502;13.488;2023-03-09T08:49:27;1.70;1.00
1377;DHT22;682;52.502;13.488;2023-03-09T08:51:54;1.70;1.00
1377;DHT22;682;52.502;13.488;2023-03-09T08:54:21;1.80;1.00
1377;DHT22;682;52.502;13.488;2023-03-09T08:56:48;1.80;1.00
1377;DHT22;682;52.502;13.488;2023-03-09T08:59:15;1.80;1.00
1377;DHT22;682;52.502;13.488;2023-03-09T09:01:42;1.80;1.00
1377;DHT22;682;52.502;13.488;2023-03-09T09:04:09;1.80;1.00
1377;DHT22;682;52.502;13.488;2023-03-09T09:06:38;1.90;1.00
1377;DHT22;682;52.502;13.488;2023-03-09T09:09:06;2.00;1.00
1377;DHT22;682;52.502;13.488;2023-03-09T09:11:33;2.10;1.00
1377;DHT22;682;52.502;13.488;2023-03-09T09:14:00;2.20;1.00
1377;DHT22;682;52.502;13.488;2023-03-09T09:16:28;2.20;1.00
1377;DHT22;682;52.502;13.488;2023-03-09T09:18:55;2.20;1.00
1377;DHT22;682;52.502;13.488;2023-03-09T09:21:22;2.30;1.00
1377;DHT22;682;52.502;13.488;2023-03-09T09:23:53;2.40;1.00
1377;DHT22;682;52.502;13.488;2023-03-09T09:26:20;2.40;1.00
1377;DHT22;682;52.502;13.488;2023-03-09T09:28:47;2.50;1.00
1377;DHT22;682;52.502;13.488;2023-03-09T09:31:17;2.50;1.00
1377;DHT22;682;52.502;13.488;2023-03-09T09:33:45;2.60;1.00
1377;DHT22;682;52.502;13.488;2023-03-09T09:36:14;2.60;1.00
1377;DHT22;682;52.502;13.488;2023-03-09T09:38:44;2.70;1.00
1377;DHT22;682;52.502;13.488;2023-03-09T09:41:17;2.60;1.00
1377;DHT22;682;52.502;13.488;2023-03-09T09:43:46;2.70;1.00
1377;DHT22;682;52.502;13.488;2023-03-09T09:46:15;2.70;1.00
1377;DHT22;682;52.502;13.488;2023-03-09T09:48:43;2.80;1.00
1377;DHT22;682;52.502;13.488;2023-03-09T09:51:36;2.80;1.00
1377;DHT22;682;52.502;13.488;2023-03-09T09:54:14;2.80;1.00
1377;DHT22;682;52.502;13.488;2023-03-09T09:56:47;2.80;1.00
1377;DHT22;682;52.502;13.488;2023-03-09T09:59:19;2.80;1.00
1377;DHT22;682;52.502;13.488;2023-03-09T10:01:53;2.80;1.00
1377;DHT22;682;52.502;13.488;2023-03-09T10:04:29;2.90;1.00
1377;DHT22;682;52.502;13.488;2023-03-09T10:07:00;3.00;1.00
1377;DHT22;682;52.502;13.488;2023-03-09T10:09:33;3.10;1.00
1377;DHT22;682;52.502;13.488;2023-03-09T10:12:11;3.20;1.00
1377;DHT22;682;52.502;13.488;2023-03-09T10:14:43;3.20;1.00
1377;DHT22;682;52.502;13.488;2023-03-09T10:17:15;3.20;1.00
1377;DHT22;682;52.502;13.488;2023-03-09T10:19:43;3.20;1.00
1377;DHT22;682;52.502;13.488;2023-03-09T10:22:17;3.10;1.00
1377;DHT22;682;52.502;13.488;2023-03-09T10:24:47;3.10;1.00
1377;DHT22;682;52.502;13.488;2023-03-09T10:27:20;3.10;1.00
1377;DHT22;682;52.502;13.488;2023-03-09T10:29:52;3.10;1.00
1377;DHT22;682;52.502;13.488;2023-03-09T10:32:24;3.10;1.00
1377;DHT22;682;52.502;13.488;2023-03-09T10:34:55;3.10;1.00
1377;DHT22;682;52.502;13.488;2023-03-09T10:37:27;3.10;1.00
1377;DHT22;682;52.502;13.488;2023-03-09T10:39:55;3.20;1.00
1377;DHT22;682;52.502;13.488;2023-03-09T10:42:26;3.10;1.00
1377;DHT22;682;52.502;13.488;2023-03-09T10:45:06;3.10;1.00
1377;DHT22;682;52.502;13.488;2023-03-09T10:47:57;3.10;1.00
1377;DHT22;682;52.502;13.488;2023-03-09T10:50:28;3.10;1.00
1377;DHT22;682;52.502;13.488;2023-03-09T10:52:56;3.00;1.00
1377;DHT22;682;52.502;13.488;2023-03-09T10:55:34;2.90;1.00
1377;DHT22;682;52.502;13.488;2023-03-09T10:58:14;2.80;1.00
1377;DHT22;682;52.502;13.488;2023-03-09T11:00:55;2.80;1.00
1377;DHT22;682;52.502;13.488;2023-03-09T11:03:24;2.80;1.00
1377;DHT22;682;52.502;13.488;2023-03-09T11:09:05;2.80;1.00
1377;DHT22;682;52.502;13.488;2023-03-09T11:11:33;2.70;1.00
1377;DHT22;682;52.502;13.488;2023-03-09T11:14:01;2.70;1.00
1377;DHT22;682;52.502;13.488;2023-03-09T11:16:30;2.70;1.00
1377;DHT22;682;52.502;13.488;2023-03-09T11:19:12;2.70;1.00
1377;DHT22;682;52.502;13.488;2023-03-09T11:21:45;2.70;1.00
1377;DHT22;682;52.502;13.488;2023-03-09T11:24:14;2.90;1.00
1377;DHT22;682;52.502;13.488;2023-03-09T11:26:45;3.00;1.00
1377;DHT22;682;52.502;13.488;2023-03-09T11:29:22;3.10;1.00
1377;DHT22;682;52.502;13.488;2023-03-09T11:31:50;3.20;1.00
1377;DHT22;682;52.502;13.488;2023-03-09T11:34:26;3.10;1.00
1377;DHT22;682;52.502;13.488;2023-03-09T11:36:57;3.10;1.00
1377;DHT22;682;52.502;13.488;2023-03-09T11:39:29;3.00;1.00
1377;DHT22;682;52.502;13.488;2023-03-09T11:42:01;3.00;1.00
1377;DHT22;682;52.502;13.488;2023-03-09T11:44:33;3.00;1.00
1377;DHT22;682;52.502;13.488;2023-03-09T11:47:04;3.00;1.00
1377;DHT22;682;52.502;13.488;2023-03-09T11:49:32;3.00;1.00
1377;DHT22;682;52.502;13.488;2023-03-09T11:52:00;3.00;1.00
1377;DHT22;682;52.502;13.488;2023-03-09T11:54:31;3.00;1.00
1377;DHT22;682;52.502;13.488;2023-03-09T11:57:02;3.10;1.00
1377;DHT22;682;52.502;13.488;2023-03-09T11:59:37;3.20;1.00
1377;DHT22;682;52.502;13.488;2023-03-09T12:02:14;3.30;1.00
1377;DHT22;682;52.502;13.488;2023-03-09T12:04:46;3.30;1.00
1377;DHT22;682;52.502;13.488;2023-03-09T12:07:22;3.20;1.00
1377;DHT22;682;52.502;13.488;2023-03-09T12:09:56;3.20;1.00
1377;DHT22;682;52.502;13.488;2023-03-09T12:12:30;3.30;1.00
1377;DHT22;682;52.502;13.488;2023-03-09T12:15:04;3.30;1.00
1377;DHT22;682;52.502;13.488;2023-03-09T12:17:40;3.30;1.00
1377;DHT22;682;52.502;13.488;2023-03-09T12:20:19;3.20;1.00
1377;DHT22;682;52.502;13.488;2023-03-09T12:22:50;3.10;1.00
1377;DHT22;682;52.502;13.488;2023-03-09T12:25:19;3.00;1.00
1377;DHT22;682;52.502;13.488;2023-03-09T12:27:48;3.00;1.00
1377;DHT22;682;52.502;13.488;2023-03-09T12:30:26;3.10;1.00
1377;DHT22;682;52.502;13.488;2023-03-09T12:32:56;3.10;1.00
1377;DHT22;682;52.502;13.488;2023-03-09T12:38:24;3.30;1.00
1377;DHT22;682;52.502;13.488;2023-03-09T12:40:53;3.30;1.00
1377;DHT22;682;52.502;13.488;2023-03-09T12:43:51;3.30;1.00
1377;DHT22;682;52.502;13.488;2023-03-09T12:47:02;3.30;1.00
1377;DHT22;682;52.502;13.488;2023-03-09T12:49:33;3.40;1.00
1377;DHT22;682;52.502;13.488;2023-03-09T12:52:33;3.20;1.00
1377;DHT22;682;52.502;13.488;2023-03-09T12:55:10;3.30;1.00
1377;DHT22;682;52.502;13.488;2023-03-09T12:57:38;3.40;1.00
1377;DHT22;682;52.502;13.488;2023-03-09T13:00:27;3.50;1.00
1377;DHT22;682;52.502;13.488;2023-03-09T13:03:01;3.60;1.00
1377;DHT22;682;52.502;13.488;2023-03-09T13:05:31;3.60;1.00
1377;DHT22;682;52.502;13.488;2023-03-09T13:08:02;3.70;1.00
1377;DHT22;682;52.502;13.488;2023-03-09T13:10:32;3.70;1.00
1377;DHT22;682;52.502;13.488;2023-03-09T13:13:26;3.80;1.00
1377;DHT22;682;52.502;13.488;2023-03-09T13:25:35;3.60;1.00
1377;DHT22;682;52.502;13.488;2023-03-09T13:28:12;3.60;1.00
1377;DHT22;682;52.502;13.488;2023-03-09T13:30:42;3.60;1.00
1377;DHT22;682;52.502;13.488;2023-03-09T13:33:17;3.60;1.00
1377;DHT22;682;52.502;13.488;2023-03-09T13:35:56;3.50;1.00
1377;DHT22;682;52.502;13.488;2023-03-09T13:38:27;3.50;1.00
1377;DHT22;682;52.502;13.488;2023-03-09T13:40:56;3.50;1.00
1377;DHT22;682;52.502;13.488;2023-03-09T13:43:27;3.40;1.00
1377;DHT22;682;52.502;13.488;2023-03-09T13:46:02;3.30;1.00
1377;DHT22;682;52.502;13.488;2023-03-09T13:48:32;3.20;1.00
1377;DHT22;682;52.502;13.488;2023-03-09T13:51:01;3.30;1.00
1377;DHT22;682;52.502;13.488;2023-03-09T13:53:29;3.40;1.00
1377;DHT22;682;52.502;13.488;2023-03-09T13:55:59;3.50;1.00
1377;DHT22;682;52.502;13.488;2023-03-09T13:58:28;3.60;1.00
1377;DHT22;682;52.502;13.488;2023-03-09T14:00:58;3.70;1.00
1377;DHT22;682;52.502;13.488;2023-03-09T14:03:27;3.70;1.00
1377;DHT22;682;52.502;13.488;2023-03-09T14:05:59;3.70;1.00
1377;DHT22;682;52.502;13.488;2023-03-09T14:08:30;3.70;1.00
1377;DHT22;682;52.502;13.488;2023-03-09T14:11:04;3.70;1.00
1377;DHT22;682;52.502;13.488;2023-03-09T14:13:35;3.70;1.00
1377;DHT22;682;52.502;13.488;2023-03-09T14:16:05;3.70;1.00
1377;DHT22;682;52.502;13.488;2023-03-09T14:18:40;3.60;1.00
1377;DHT22;682;52.502;13.488;2023-03-09T14:21:19;3.60;1.00
1377;DHT22;682;52.502;13.488;2023-03-09T14:23:48;3.70;1.00
1377;DHT22;682;52.502;13.488;2023-03-09T14:26:24;3.80;1.00
1377;DHT22;682;52.502;13.488;2023-03-09T14:29:03;3.90;1.00
1377;DHT22;682;52.502;13.488;2023-03-09T14:31:31;3.80;1.00
1377;DHT22;682;52.502;13.488;2023-03-09T14:34:02;3.70;1.00
1377;DHT22;682;52.502;13.488;2023-03-09T14:36:35;3.70;1.00
1377;DHT22;682;52.502;13.488;2023-03-09T14:39:22;3.70;1.00
1377;DHT22;682;52.502;13.488;2023-03-09T14:42:02;3.70;1.00
1377;DHT22;682;52.502;13.488;2023-03-09T14:44:34;3.70;1.00
1377;DHT22;682;52.502;13.488;2023-03-09T14:47:03;3.60;1.00
1377;DHT22;682;52.502;13.488;2023-03-09T14:49:32;3.50;1.00
1377;DHT22;682;52.502;13.488;2023-03-09T14:51:59;3.40;1.00
1377;DHT22;682;52.502;13.488;2023-03-09T14:54:28;3.50;1.00
1377;DHT22;682;52.502;13.488;2023-03-09T14:56:56;3.50;1.00
1377;DHT22;682;52.502;13.488;2023-03-09T14:59:24;3.50;1.00
1377;DHT22;682;52.502;13.488;2023-03-09T15:01:55;3.40;1.00
1377;DHT22;682;52.502;13.488;2023-03-09T15:04:23;3.30;1.00
1377;DHT22;682;52.502;13.488;2023-03-09T15:06:50;3.30;1.00
1377;DHT22;682;52.502;13.488;2023-03-09T15:09:18;3.30;1.00
1377;DHT22;682;52.502;13.488;2023-03-09T15:11:47;3.40;1.00
1377;DHT22;682;52.502;13.488;2023-03-09T15:14:18;3.40;1.00
1377;DHT22;682;52.502;13.488;2023-03-09T15:16:46;3.40;1.00
1377;DHT22;682;52.502;13.488;2023-03-09T15:19:15;3.40;1.00
1377;DHT22;682;52.502;13.488;2023-03-09T15:21:45;3.40;1.00
1377;DHT22;682;52.502;13.488;2023-03-09T15:24:13;3.40;1.00
1377;DHT22;682;52.502;13.488;2023-03-09T15:26:42;3.40;1.00
1377;DHT22;682;52.502;13.488;2023-03-09T15:29:10;3.40;1.00
1377;DHT22;682;52.502;13.488;2023-03-09T15:31:37;3.30;1.00
1377;DHT22;682;52.502;13.488;2023-03-09T15:34:08;3.30;1.00
1377;DHT22;682;52.502;13.488;2023-03-09T15:36:35;3.30;1.00
1377;DHT22;682;52.502;13.488;2023-03-09T15:39:03;3.30;1.00
1377;DHT22;682;52.502;13.488;2023-03-09T15:41:30;3.30;1.00
1377;DHT22;682;52.502;13.488;2023-03-09T15:43:57;3.30;1.00
1377;DHT22;682;52.502;13.488;2023-03-09T15:46:25;3.40;1.00
1377;DHT22;682;52.502;13.488;2023-03-09T15:48:54;3.40;1.00
1377;DHT22;682;52.502;13.488;2023-03-09T15:51:21;3.40;1.00
1377;DHT22;682;52.502;13.488;2023-03-09T15:53:50;3.40;1.00
1377;DHT22;682;52.502;13.488;2023-03-09T15:56:18;3.30;1.00
1377;DHT22;682;52.502;13.488;2023-03-09T15:58:46;3.30;1.00
1377;DHT22;682;52.502;13.488;2023-03-09T16:01:14;3.20;1.00
1377;DHT22;682;52.502;13.488;2023-03-09T16:03:48;3.30;1.00
1377;DHT22;682;52.502;13.488;2023-03-09T16:06:16;3.30;1.00
1377;DHT22;682;52.502;13.488;2023-03-09T16:08:44;3.30;1.00
1377;DHT22;682;52.502;13.488;2023-03-09T16:11:11;3.20;1.00
1377;DHT22;682;52.502;13.488;2023-03-09T16:13:39;3.30;1.00
1377;DHT22;682;52.502;13.488;2023-03-09T16:16:09;3.20;1.00
1377;DHT22;682;52.502;13.488;2023-03-09T16:18:38;3.10;1.00
1377;DHT22;682;52.502;13.488;2023-03-09T16:21:09;3.10;1.00
1377;DHT22;682;52.502;13.488;2023-03-09T16:23:36;3.20;1.00
1377;DHT22;682;52.502;13.488;2023-03-09T16:26:04;3.20;1.00
1377;DHT22;682;52.502;13.488;2023-03-09T16:28:31;3.20;1.00
1377;DHT22;682;52.502;13.488;2023-03-09T16:30:58;3.20;1.00
1377;DHT22;682;52.502;13.488;2023-03-09T16:33:25;3.20;1.00
1377;DHT22;682;52.502;13.488;2023-03-09T16:35:56;3.20;1.00
1377;DHT22;682;52.502;13.488;2023-03-09T16:38:28;3.30;1.00
1377;DHT22;682;52.502;13.488;2023-03-09T16:40:55;3.20;1.00
1377;DHT22;682;52.502;13.488;2023-03-09T16:43:22;3.10;1.00
1377;DHT22;682;52.502;13.488;2023-03-09T16:45:51;3.20;1.00
1377;DHT22;682;52.502;13.488;2023-03-09T16:48:19;3.20;1.00
1377;DHT22;682;52.502;13.488;2023-03-09T16:50:47;3.20;1.00
1377;DHT22;682;52.502;13.488;2023-03-09T16:53:14;3.30;1.00
1377;DHT22;682;52.502;13.488;2023-03-09T16:55:42;3.30;1.00
1377;DHT22;682;52.502;13.488;2023-03-09T16:58:09;3.40;1.00
1377;DHT22;682;52.502;13.488;2023-03-09T17:00:36;3.30;1.00
1377;DHT22;682;52.502;13.488;2023-03-09T17:03:03;3.20;1.00
1377;DHT22;682;52.502;13.488;2023-03-09T17:05:30;3.20;1.00
1377;DHT22;682;52.502;13.488;2023-03-09T17:07:57;3.20;1.00
1377;DHT22;682;52.502;13.488;2023-03-09T17:10:24;3.10;1.00
1377;DHT22;682;52.502;13.488;2023-03-09T17:12:53;3.10;1.00
1377;DHT22;682;52.502;13.488;2023-03-09T17:15:20;3.10;1.00
1377;DHT22;682;52.502;13.488;2023-03-09T17:17:48;3.10;1.00
1377;DHT22;682;52.502;13.488;2023-03-09T17:20:15;3.00;1.00
1377;DHT22;682;52.502;13.488;2023-03-09T17:22:43;3.00;1.00
1377;DHT22;682;52.502;13.488;2023-03-09T17:25:15;2.90;1.00
1377;DHT22;682;52.502;13.488;2023-03-09T17:27:42;2.90;1.00
1377;DHT22;682;52.502;13.488;2023-03-09T17:30:12;2.80;1.00
1377;DHT22;682;52.502;13.488;2023-03-09T17:32:40;2.80;1.00
1377;DHT22;682;52.502;13.488;2023-03-09T17:35:07;2.80;1.00
1377;DHT22;682;52.502;13.488;2023-03-09T17:37:34;2.80;1.00
1377;DHT22;682;52.502;13.488;2023-03-09T17:40:02;2.80;1.00
1377;DHT22;682;52.502;13.488;2023-03-09T17:42:32;2.80;1.00
1377;DHT22;682;52.502;13.488;2023-03-09T17:45:01;2.80;1.00
1377;DHT22;682;52.502;13.488;2023-03-09T17:47:31;2.80;1.00
1377;DHT22;682;52.502;13.488;2023-03-09T17:49:58;2.90;1.00
1377;DHT22;682;52.502;13.488;2023-03-09T17:52:26;2.90;1.00
1377;DHT22;682;52.502;13.488;2023-03-09T17:54:53;3.00;1.00
1377;DHT22;682;52.502;13.488;2023-03-09T17:57:20;3.00;1.00
1377;DHT22;682;52.502;13.488;2023-03-09T17:59:47;2.90;1.00
1377;DHT22;682;52.502;13.488;2023-03-09T18:02:14;2.90;1.00
1377;DHT22;682;52.502;13.488;2023-03-09T18:04:46;2.90;1.00
1377;DHT22;682;52.502;13.488;2023-03-09T18:07:13;2.90;1.00
1377;DHT22;682;52.502;13.488;2023-03-09T18:09:42;2.90;1.00
1377;DHT22;682;52.502;13.488;2023-03-09T18:12:09;2.90;1.00
1377;DHT22;682;52.502;13.488;2023-03-09T18:14:37;2.80;1.00
1377;DHT22;682;52.502;13.488;2023-03-09T18:17:04;2.80;1.00
1377;DHT22;682;52.502;13.488;2023-03-09T18:19:31;2.70;1.00
1377;DHT22;682;52.502;13.488;2023-03-09T18:22:02;2.70;1.00
1377;DHT22;682;52.502;13.488;2023-03-09T18:24:29;2.70;1.00
1377;DHT22;682;52.502;13.488;2023-03-09T18:26:56;2.70;1.00
1377;DHT22;682;52.502;13.488;2023-03-09T18:29:23;2.70;1.00
1377;DHT22;682;52.502;13.488;2023-03-09T18:31:50;2.60;1.00
1377;DHT22;682;52.502;13.488;2023-03-09T18:34:18;2.60;1.00
1377;DHT22;682;52.502;13.488;2023-03-09T18:36:45;2.60;1.00
1377;DHT22;682;52.502;13.488;2023-03-09T18:39:13;2.50;1.00
1377;DHT22;682;52.502;13.488;2023-03-09T18:41:40;2.50;1.00
1377;DHT22;682;52.502;13.488;2023-03-09T18:44:07;2.50;1.00
1377;DHT22;682;52.502;13.488;2023-03-09T18:46:34;2.50;1.00
1377;DHT22;682;52.502;13.488;2023-03-09T18:49:01;2.50;1.00
1377;DHT22;682;52.502;13.488;2023-03-09T18:51:28;2.50;1.00
1377;DHT22;682;52.502;13.488;2023-03-09T18:53:55;2.40;1.00
1377;DHT22;682;52.502;13.488;2023-03-09T18:56:24;2.50;1.00
1377;DHT22;682;52.502;13.488;2023-03-09T18:58:54;2.50;1.00
1377;DHT22;682;52.502;13.488;2023-03-09T19:01:21;2.50;1.00
1377;DHT22;682;52.502;13.488;2023-03-09T19:03:48;2.40;1.00
1377;DHT22;682;52.502;13.488;2023-03-09T19:06:16;2.40;1.00
1377;DHT22;682;52.502;13.488;2023-03-09T19:08:44;2.40;1.00
1377;DHT22;682;52.502;13.488;2023-03-09T19:11:12;2.40;1.00
1377;DHT22;682;52.502;13.488;2023-03-09T19:13:41;2.40;1.00
1377;DHT22;682;52.502;13.488;2023-03-09T19:16:08;2.30;1.00
1377;DHT22;682;52.502;13.488;2023-03-09T19:18:35;2.40;1.00
1377;DHT22;682;52.502;13.488;2023-03-09T19:21:05;2.40;1.00
1377;DHT22;682;52.502;13.488;2023-03-09T19:23:33;2.40;1.00
1377;DHT22;682;52.502;13.488;2023-03-09T19:26:00;2.40;1.00
1377;DHT22;682;52.502;13.488;2023-03-09T19:28:27;2.40;1.00
1377;DHT22;682;52.502;13.488;2023-03-09T19:31:03;2.40;1.00
1377;DHT22;682;52.502;13.488;2023-03-09T19:33:31;2.40;1.00
1377;DHT22;682;52.502;13.488;2023-03-09T19:35:59;2.40;1.00
1377;DHT22;682;52.502;13.488;2023-03-09T19:38:26;2.40;1.00
1377;DHT22;682;52.502;13.488;2023-03-09T19:40:58;2.40;1.00
1377;DHT22;682;52.502;13.488;2023-03-09T19:43:25;2.40;1.00
1377;DHT22;682;52.502;13.488;2023-03-09T19:45:58;2.40;1.00
1377;DHT22;682;52.502;13.488;2023-03-09T19:48:27;2.40;1.00
1377;DHT22;682;52.502;13.488;2023-03-09T19:51:01;2.40;1.00
1377;DHT22;682;52.502;13.488;2023-03-09T19:53:33;2.40;1.00
1377;DHT22;682;52.502;13.488;2023-03-09T19:56:02;2.50;1.00
1377;DHT22;682;52.502;13.488;2023-03-09T19:58:29;2.40;1.00
1377;DHT22;682;52.502;13.488;2023-03-09T20:00:56;2.30;1.00
1377;DHT22;682;52.502;13.488;2023-03-09T20:03:23;2.30;1.00
1377;DHT22;682;52.502;13.488;2023-03-09T20:05:59;2.20;1.00
1377;DHT22;682;52.502;13.488;2023-03-09T20:08:26;2.20;1.00
1377;DHT22;682;52.502;13.488;2023-03-09T20:10:53;2.30;1.00
1377;DHT22;682;52.502;13.488;2023-03-09T20:13:20;2.20;1.00
1377;DHT22;682;52.502;13.488;2023-03-09T20:15:47;2.20;1.00
1377;DHT22;682;52.502;13.488;2023-03-09T20:18:14;2.30;1.00
1377;DHT22;682;52.502;13.488;2023-03-09T20:20:41;2.30;1.00
1377;DHT22;682;52.502;13.488;2023-03-09T20:23:10;2.30;1.00
1377;DHT22;682;52.502;13.488;2023-03-09T20:25:38;2.30;1.00
1377;DHT22;682;52.502;13.488;2023-03-09T20:28:05;2.30;1.00
1377;DHT22;682;52.502;13.488;2023-03-09T20:30:33;2.20;1.00
1377;DHT22;682;52.502;13.488;2023-03-09T20:33:00;2.30;1.00
1377;DHT22;682;52.502;13.488;2023-03-09T20:35:27;2.40;1.00
1377;DHT22;682;52.502;13.488;2023-03-09T20:37:55;2.40;1.00
1377;DHT22;682;52.502;13.488;2023-03-09T20:40:25;2.40;1.00
1377;DHT22;682;52.502;13.488;2023-03-09T20:42:52;2.50;1.00
1377;DHT22;682;52.502;13.488;2023-03-09T20:45:20;2.40;1.00
1377;DHT22;682;52.502;13.488;2023-03-09T20:47:48;2.40;1.00
1377;DHT22;682;52.502;13.488;2023-03-09T20:50:15;2.40;1.00
1377;DHT22;682;52.502;13.488;2023-03-09T20:52:43;2.40;1.00
1377;DHT22;682;52.502;13.488;2023-03-09T20:55:14;2.40;1.00
1377;DHT22;682;52.502;13.488;2023-03-09T20:57:43;2.40;1.00
1377;DHT22;682;52.502;13.488;2023-03-09T21:00:12;2.50;1.00
1377;DHT22;682;52.502;13.488;2023-03-09T21:02:39;2.30;1.00
1377;DHT22;682;52.502;13.488;2023-03-09T21:05:09;2.40;1.00
1377;DHT22;682;52.502;13.488;2023-03-09T21:07:36;2.40;1.00
1377;DHT22;682;52.502;13.488;2023-03-09T21:10:04;2.40;1.00
1377;DHT22;682;52.502;13.488;2023-03-09T21:12:31;2.30;1.00
1377;DHT22;682;52.502;13.488;2023-03-09T21:15:01;2.40;1.00
1377;DHT22;682;52.502;13.488;2023-03-09T21:17:28;2.40;1.00
1377;DHT22;682;52.502;13.488;2023-03-09T21:19:56;2.40;1.00
1377;DHT22;682;52.502;13.488;2023-03-09T21:22:24;2.40;1.00
1377;DHT22;682;52.502;13.488;2023-03-09T21:24:52;2.40;1.00
1377;DHT22;682;52.502;13.488;2023-03-09T21:27:19;2.40;1.00
1377;DHT22;682;52.502;13.488;2023-03-09T21:29:46;2.40;1.00
1377;DHT22;682;52.502;13.488;2023-03-09T21:32:15;2.40;1.00
1377;DHT22;682;52.502;13.488;2023-03-09T21:34:42;2.50;1.00
1377;DHT22;682;52.502;13.488;2023-03-09T21:37:11;2.40;1.00
1377;DHT22;682;52.502;13.488;2023-03-09T21:39:38;2.40;1.00
1377;DHT22;682;52.502;13.488;2023-03-09T21:42:06;2.40;1.00
1377;DHT22;682;52.502;13.488;2023-03-09T21:44:33;2.50;1.00
1377;DHT22;682;52.502;13.488;2023-03-09T21:47:00;2.50;1.00
1377;DHT22;682;52.502;13.488;2023-03-09T21:49:28;2.50;1.00
1377;DHT22;682;52.502;13.488;2023-03-09T21:51:55;2.50;1.00
1377;DHT22;682;52.502;13.488;2023-03-09T21:54:22;2.40;1.00
1377;DHT22;682;52.502;13.488;2023-03-09T21:56:50;2.50;1.00
1377;DHT22;682;52.502;13.488;2023-03-09T21:59:17;2.50;1.00
1377;DHT22;682;52.502;13.488;2023-03-09T22:01:44;2.60;1.00
1377;DHT22;682;52.502;13.488;2023-03-09T22:04:11;2.60;1.00
1377;DHT22;682;52.502;13.488;2023-03-09T22:06:39;2.60;1.00
1377;DHT22;682;52.502;13.488;2023-03-09T22:09:07;2.50;1.00
1377;DHT22;682;52.502;13.488;2023-03-09T22:11:35;2.50;1.00
1377;DHT22;682;52.502;13.488;2023-03-09T22:14:02;2.50;1.00
1377;DHT22;682;52.502;13.488;2023-03-09T22:16:33;2.50;1.00
1377;DHT22;682;52.502;13.488;2023-03-09T22:19:02;2.50;1.00
1377;DHT22;682;52.502;13.488;2023-03-09T22:21:30;2.60;1.00
1377;DHT22;682;52.502;13.488;2023-03-09T22:23:59;2.50;1.00
1377;DHT22;682;52.502;13.488;2023-03-09T22:26:27;2.50;1.00
1377;DHT22;682;52.502;13.488;2023-03-09T22:28:54;2.50;1.00
1377;DHT22;682;52.502;13.488;2023-03-09T22:31:21;2.50;1.00
1377;DHT22;682;52.502;13.488;2023-03-09T22:33:49;2.50;1.00
1377;DHT22;682;52.502;13.488;2023-03-09T22:36:18;2.50;1.00
1377;DHT22;682;52.502;13.488;2023-03-09T22:38:46;2.60;1.00
1377;DHT22;682;52.502;13.488;2023-03-09T22:41:16;2.60;1.00
1377;DHT22;682;52.502;13.488;2023-03-09T22:43:44;2.60;1.00
1377;DHT22;682;52.502;13.488;2023-03-09T22:46:12;2.50;1.00
1377;DHT22;682;52.502;13.488;2023-03-09T22:48:40;2.60;1.00
1377;DHT22;682;52.502;13.488;2023-03-09T22:51:09;2.50;1.00
1377;DHT22;682;52.502;13.488;2023-03-09T22:53:36;2.50;1.00
1377;DHT22;682;52.502;13.488;2023-03-09T22:56:07;2.40;1.00
1377;DHT22;682;52.502;13.488;2023-03-09T22:58:37;2.40;1.00
1377;DHT22;682;52.502;13.488;2023-03-09T23:01:13;2.30;1.00
1377;DHT22;682;52.502;13.488;2023-03-09T23:03:40;2.30;1.00
1377;DHT22;682;52.502;13.488;2023-03-09T23:06:08;2.30;1.00
1377;DHT22;682;52.502;13.488;2023-03-09T23:08:35;2.30;1.00
1377;DHT22;682;52.502;13.488;2023-03-09T23:11:03;2.30;1.00
1377;DHT22;682;52.502;13.488;2023-03-09T23:13:30;2.30;1.00
1377;DHT22;682;52.502;13.488;2023-03-09T23:15:58;2.30;1.00
1377;DHT22;682;52.502;13.488;2023-03-09T23:18:25;2.30;1.00
1377;DHT22;682;52.502;13.488;2023-03-09T23:20:52;2.30;1.00
1377;DHT22;682;52.502;13.488;2023-03-09T23:23:20;2.40;1.00
1377;DHT22;682;52.502;13.488;2023-03-09T23:25:46;2.40;1.00
1377;DHT22;682;52.502;13.488;2023-03-09T23:28:13;2.40;1.00
1377;DHT22;682;52.502;13.488;2023-03-09T23:30:40;2.30;1.00
1377;DHT22;682;52.502;13.488;2023-03-09T23:33:08;2.30;1.00
1377;DHT22;682;52.502;13.488;2023-03-09T23:35:36;2.30;1.00
1377;DHT22;682;52.502;13.488;2023-03-09T23:38:07;2.40;1.00
1377;DHT22;682;52.502;13.488;2023-03-09T23:40:34;2.40;1.00
1377;DHT22;682;52.502;13.488;2023-03-09T23:43:01;2.40;1.00
1377;DHT22;682;52.502;13.488;2023-03-09T23:45:28;2.40;1.00
1377;DHT22;682;52.502;13.488;2023-03-09T23:47:55;2.40;1.00
1377;DHT22;682;52.502;13.488;2023-03-09T23:50:25;2.30;1.00
1377;DHT22;682;52.502;13.488;2023-03-09T23:52:52;2.30;1.00
1377;DHT22;682;52.502;13.488;2023-03-09T23:55:19;2.20;1.00
1377;DHT22;682;52.502;13.488;2023-03-09T23:57:46;2.10;1.00
